CMG weather

Corumbá International Airport
Corumbá, Mato Grosso do Sul, Brazil

Public forecast

Using degrees Celsius for public forecast. Weather courtesy of forecast.io.

Current aviation weather report (METAR) for Corumbá International Airport

Retrieved 2020/07/10 16:00 UTC (21 minutes ago):

SBCR 101600Z 03008KT 350V060 8000 NSC 26/17 Q1014

Aviation forecast (TAF) for Corumbá International Airport

Retrieved 2020/07/10 12:00 UTC (4 hours ago):

TAF SBCR 100900Z 1012/1112 02007KT 9999 SCT035 TN17/1012Z TX30/1018Z BECMG 1022/1024 27007KT BECMG 1110/1112 16007KT RMK PDP